Huvudsida
METAR-TAF:

METAR-TAF

Flygplatser :

Luganos flygplats

Lugano, Schweiz

latitud: 46-00N, longitud: 008-58E, höjd: 273 m

Aktuellt väderrapport

Denna rapport gjordes för 27 minuter sedan, klockan 13:50 UTC
Vind 6 kt från syd/sydväst
Temperatur 31°C
Fuktighet 43%
Tryck 1019 hPa
Sikt 10 km eller mer
Få moln på en höjd av 6000 ft

METAR: LSZA 241350Z 20006KT 9999 FEW060 31/17 Q1019 NOSIG

Tid: 16:17 (14:17 UTC)

Väderprognos

Denna rapport gjordes för 2 timmar och 52 minuter sedan, klockan 11:25 UTC
Prognos gäller från 24 kl. 12 UTC till 24 kl. 21 UTC
Vind 8 kt från syd
Sikt 10 km eller mer
Få moln på en höjd av 7000 ft
Blir
från 24 kl. 17 UTC till 24 kl. 20 UTC
Vind 3 kt varierande vindriktning
Sikt 10 km eller mer
Inga moln under 1 500 m eller inga cumulonimbus

TAF: LSZA 241125Z 2412/2421 19008KT 9999 FEW070 BECMG 2417/2420 VRB03KT CAVOK

Aktuella väderrapporter och prognoser från 4000 flygplatser (METAR- och TAF-rapporter).

De tillgängliga stationerna syns som gula och röda prickar på kartan.

För musen över prickarna för att se namnen på stationerna.

Klicka sedan för att få väderrapporter och prognoser.

För att ändra kartan: Klicka på de gröna knapparna med ett svart kors på för att zooma in; den gröna knappen med ett streck på för att zooma ut; eller på de gröna pilarna för angränsande kartor.


METAR-TAF: